Latest Weather Observations for Cape Nelson

IDV60801

Issued at 2:02 pm EST Monday 25 July 2016 (issued every 30 minutes, with the page automatically refreshed every 10 minutes)

About weather observations | Map of weather stations | Latest weather observations for VIC | Other Formats
Station Details ID: 090184 Name: CAPE NELSON LIGHTHOUSE Lat: -38.43 Lon: 141.54 Height: 45.4 m
Data from the previous 72 hours. | See also: Recent months at Cape Nelson
Date/Time
EST
Temp
°C
App
Temp
°C
Dew
Point
°C
Rel
Hum
%
Delta-T
°C
Wind Press
QNH
hPa
Press
MSL
hPa
Rain since
9am
mm
Dir  Spd
km/h
Gust
km/h
Spd
kts
Gust
kts
25/02:00pm 10.5 0.6 8.4 87 1.0 NNW 50 72 27 39 998.5 998.5 1.4
25/01:30pm 11.7 4.7 8.6 81 1.5 NNW 35 56 19 30 999.4 999.5 0.6
25/01:00pm 12.7 4.6 8.6 76 2.1 NNW 41 61 22 33 1000.4 1000.5 0.6
25/12:30pm 12.4 4.4 7.3 71 2.5 NNW 39 57 21 31 1001.5 1001.6 0.4
25/12:00pm 13.1 5.4 7.3 68 2.8 NNW 37 57 20 31 1002.7 1002.8 0.4
25/11:30am 12.4 4.7 7.1 70 2.6 NNW 37 61 20 33 1003.6 1003.7 0.4
25/11:23am 12.3 4.6 7.0 70 2.6 NW 37 57 20 31 1003.9 1004.0 0.4
25/11:00am 12.0 5.2 7.7 75 2.1 NW 33 46 18 25 1004.7 1004.7 0.4
25/10:34am 11.0 4.2 7.9 81 1.5 NW 33 52 18 28 1005.1 1005.1 0.4
25/10:30am 10.7 4.5 7.8 82 1.4 NW 30 44 16 24 1005.2 1005.2 0.4
25/10:00am 9.7 3.8 7.3 85 1.1 NNW 28 37 15 20 1005.8 1005.8 0.4
25/09:44am 9.5 2.7 7.1 85 1.1 NNW 32 50 17 27 1005.8 1005.8 0.4
25/09:30am 9.5 3.9 7.1 85 1.1 NW 26 37 14 20 1006.1 1006.1 0.4
25/09:00am 10.6 3.8 6.7 77 1.8 NW 32 44 17 24 1006.4 1006.4 14.2
25/08:35am 11.0 4.0 6.7 75 2.0 WNW 33 56 18 30 1006.7 1006.7 14.2
25/08:30am 10.8 4.0 6.7 76 1.9 WNW 32 44 17 24 1006.8 1006.8 14.2
25/08:00am 11.3 3.7 5.8 69 2.6 WNW 35 50 19 27 1006.9 1006.9 14.2
25/07:30am 11.5 4.3 5.2 65 2.9 W 32 52 17 28 1007.0 1007.0 14.2
25/07:11am 11.3 3.7 5.6 68 2.6 W 35 54 19 29 1007.0 1007.0 14.2
25/07:00am 11.0 3.2 5.1 67 2.7 W 35 48 19 26 1007.0 1007.0 14.2
25/06:52am 11.2 2.3 5.3 67 2.7 W 41 59 22 32 1007.0 1007.0 14.2
25/06:30am 11.2 2.4 5.5 68 2.6 W 41 57 22 31 1006.7 1006.7 14.2
25/06:00am 11.4 2.3 5.7 68 2.7 W 43 65 23 35 1006.3 1006.3 14.2
25/05:37am 11.1 3.5 7.6 79 1.7 W 37 56 20 30 1006.1 1006.1 14.2
25/05:30am 10.7 3.5 7.8 82 1.4 W 35 56 19 30 1006.1 1006.1 14.2
25/05:02am 10.6 4.9 8.5 87 1.0 NW 28 57 15 31 1005.5 1005.5 14.2
25/05:00am 10.3 4.9 8.2 87 1.0 NNW 26 43 14 23 1005.3 1005.3 14.2
25/04:32am 10.8 5.0 8.0 83 1.4 NW 28 54 15 29 1004.8 1004.8 13.6
25/04:30am 10.9 5.1 8.1 83 1.4 NW 28 44 15 24 1004.7 1004.7 13.6
25/04:28am 10.8 4.7 8.2 84 1.3 WNW 30 44 16 24 1004.8 1004.8 13.6
25/04:00am 10.5 0.9 7.9 84 1.3 W 48 69 26 37 1004.9 1004.9 13.6
25/03:30am 11.7 3.7 7.4 75 2.1 W 39 57 21 31 1004.4 1004.4 13.4
25/03:00am 11.1 3.4 8.5 84 1.3 W 39 67 21 36 1004.2 1004.2 13.4
25/02:36am 11.3 2.7 8.7 84 1.3 W 44 63 24 34 1004.0 1004.1 13.4
25/02:30am 10.7 2.0 7.8 82 1.4 W 43 59 23 32 1003.8 1003.9 13.4
25/02:00am 11.5 3.3 8.0 79 1.7 W 41 61 22 33 1003.7 1003.8 13.2
25/01:30am 11.4 4.9 8.8 84 1.3 W 33 56 18 30 1003.3 1003.4 13.2
25/01:00am 11.5 5.0 8.2 80 1.6 W 32 56 17 30 1002.9 1003.0 12.8
25/12:31am 11.2 2.9 7.7 79 1.7 W 41 59 22 32 1002.9 1003.0 12.8
25/12:30am 11.3 2.6 7.8 79 1.7 W 43 59 23 32 1002.9 1003.0 12.8
25/12:00am 10.8 4.8 8.7 87 1.0 W 30 50 16 27 1002.7 1002.8 12.8
 
Date/Time
EST
Temp
°C
App
Temp
°C
Dew
Point
°C
Rel
Hum
%
Delta-T
°C
Wind Press
QNH
hPa
Press
MSL
hPa
Rain since
9am
mm
Dir  Spd
km/h
Gust
km/h
Spd
kts
Gust
kts
24/11:30pm 11.3 5.0 8.9 85 1.2 W 32 50 17 27 1002.4 1002.5 12.0
24/11:00pm 10.2 2.5 8.8 91 0.7 W 39 61 21 33 1002.1 1002.2 11.8
24/10:43pm 9.6 2.7 8.8 95 0.4 WNW 35 61 19 33 1001.9 1002.0 11.8
24/10:30pm 8.1 1.1 7.0 93 0.5 NW 33 54 18 29 1001.9 1002.0 10.4
24/10:28pm 8.2 1.3 7.1 93 0.5 NW 33 54 18 29 1001.7 1001.8 10.4
24/10:00pm 8.3 1.6 7.2 93 0.5 NW 32 48 17 26 1001.8 1001.9 6.8
24/09:30pm 8.2 1.3 7.1 93 0.5 NW 33 46 18 25 1001.2 1001.3 5.4
24/09:00pm 8.4 2.4 7.0 91 0.7 NNW 28 41 15 22 1001.2 1001.3 5.0
24/08:32pm 9.3 3.5 7.9 91 0.7 NW 28 46 15 25 1000.8 1000.9 4.8
24/08:30pm 9.0 3.5 7.6 91 0.7 NW 26 37 14 20 1000.9 1001.0 4.6
24/08:01pm 8.8 2.9 7.7 93 0.5 NW 28 48 15 26 1000.6 1000.7 4.0
24/08:00pm 8.7 2.8 7.6 93 0.5 NW 28 41 15 22 1000.6 1000.7 4.0
24/07:42pm 8.9 1.7 7.8 93 0.5 NW 35 54 19 29 1000.4 1000.5 4.0
24/07:30pm 8.5 1.6 7.4 93 0.5 NW 33 50 18 27 1000.2 1000.3 4.0
24/07:12pm 9.0 1.9 8.1 94 0.4 NW 35 59 19 32 1000.0 1000.1 4.0
24/07:11pm 8.9 1.8 8.0 94 0.4 NW 35 59 19 32 1000.0 1000.1 4.0
24/07:00pm 8.3 1.6 7.2 93 0.5 NNW 32 54 17 29 1000.0 1000.1 3.6
24/06:41pm 8.2 2.2 7.0 92 0.6 NNW 28 46 15 25 999.7 999.8 2.4
24/06:30pm 8.2 1.4 7.0 92 0.6 NNW 32 46 17 25 999.6 999.7 2.4
24/06:00pm 8.2 1.8 7.0 92 0.6 NNW 30 43 16 23 999.6 999.7 2.0
24/05:30pm 8.0 1.1 6.6 91 0.6 NNW 32 46 17 25 999.1 999.2 1.4
24/05:00pm 7.9 1.0 6.4 90 0.7 NNW 32 48 17 26 999.1 999.2 1.2
24/04:31pm 8.0 1.1 6.3 89 0.8 NNW 32 50 17 27 999.1 999.2 1.0
24/04:30pm 8.1 1.6 6.4 89 0.8 NNW 30 46 16 25 999.2 999.3 1.0
24/04:00pm 8.5 1.0 6.5 87 0.9 NNW 35 56 19 30 999.5 999.6 0.6
24/03:30pm 9.1 2.6 6.5 84 1.2 NNW 30 50 16 27 999.5 999.6 0.2
24/03:27pm 9.1 3.0 6.4 83 1.3 N 28 50 15 27 999.4 999.5 0.2
24/03:00pm 9.6 4.6 6.3 80 1.5 N 22 39 12 21 999.6 999.7 0.0
24/02:30pm 9.7 4.2 6.1 78 1.7 N 24 37 13 20 1000.2 1000.3 0.0
24/02:01pm 10.0 2.4 5.6 74 2.0 N 35 54 19 29 1000.8 1000.9 0.0
24/02:00pm 10.0 2.0 5.6 74 2.0 N 37 54 20 29 1000.8 1000.9 0.0
24/01:30pm 10.9 4.3 6.1 72 2.2 N 30 48 16 26 1001.2 1001.3 0.0
24/01:05pm 10.1 3.4 5.7 74 2.0 N 30 48 16 26 1001.9 1002.0 0.0
24/01:00pm 9.7 2.9 5.3 74 2.0 N 30 44 16 24 1002.1 1002.2 0.0
24/12:30pm 9.4 2.2 4.8 73 2.1 N 32 50 17 27 1002.8 1002.9 0.0
24/12:00pm 10.0 3.6 5.0 71 2.3 N 28 48 15 26 1003.4 1003.5 0.0
24/11:56am 10.0 3.6 5.0 71 2.3 N 28 48 15 26 1003.4 1003.5 0.0
24/11:30am 9.1 3.0 4.7 74 2.0 N 26 41 14 22 1004.3 1004.3 0.0
24/11:00am 8.8 1.9 4.6 75 1.9 N 30 50 16 27 1004.9 1004.9 0.0
24/10:52am 8.8 2.3 4.8 76 1.8 N 28 46 15 25 1005.1 1005.1 0.0
24/10:30am 8.7 2.6 4.7 76 1.8 N 26 41 14 22 1005.4 1005.4 0.0
24/10:00am 7.5 2.2 4.8 83 1.2 N 22 33 12 18 1005.7 1005.7 0.0
24/09:30am 7.1 2.1 4.6 84 1.1 N 20 33 11 18 1006.1 1006.1 0.0
24/09:00am 6.4 0.6 4.2 86 0.9 N 24 41 13 22 1006.2 1006.2 0.6
24/08:30am 5.9 -0.3 4.1 88 0.8 N 26 39 14 21 1006.5 1006.5 0.6
24/08:00am 5.5 -1.2 3.8 89 0.7 N 28 41 15 22 1006.7 1006.7 0.6
24/07:30am 5.3 -1.0 3.6 89 0.7 NNW 26 37 14 20 1006.9 1006.9 0.6
24/07:00am 5.3 -1.0 3.6 89 0.7 N 26 35 14 19 1006.9 1006.9 0.6
24/06:30am 5.3 -0.7 3.5 88 0.8 N 24 35 13 19 1007.1 1007.1 0.6
24/06:00am 5.4 -0.2 3.6 88 0.8 N 22 32 12 17 1007.3 1007.3 0.6
24/05:30am 5.6 -0.4 3.6 87 0.8 NNW 24 41 13 22 1007.6 1007.6 0.6
24/05:00am 5.7 0.1 3.7 87 0.8 NNW 22 32 12 17 1008.0 1008.0 0.6
24/04:30am 5.6 -0.4 3.6 87 0.8 NNW 24 35 13 19 1008.3 1008.3 0.6
24/04:00am 5.6 -0.4 3.4 86 0.9 N 24 37 13 20 1008.6 1008.6 0.6
24/03:30am 5.6 -0.4 3.4 86 0.9 NNW 24 33 13 18 1009.2 1009.2 0.6
24/03:00am 5.7 -0.3 3.4 85 1.0 N 24 32 13 17 1009.7 1009.7 0.6
24/02:30am 6.0 0.0 3.5 84 1.1 NNW 24 33 13 18 1010.0 1010.0 0.6
24/02:00am 5.9 0.7 3.6 85 1.0 NNW 20 30 11 16 1010.1 1010.1 0.6
24/01:30am 6.0 0.4 3.7 85 1.0 NNW 22 32 12 17 1010.3 1010.3 0.6
24/01:00am 6.0 0.0 3.5 84 1.1 NNW 24 32 13 17 1010.5 1010.5 0.6
24/12:30am 6.2 0.7 3.9 85 1.0 NNW 22 30 12 16 1010.7 1010.7 0.6
24/12:00am 6.2 1.1 3.9 85 1.0 NNW 20 30 11 16 1010.9 1010.9 0.6
 
Date/Time
EST
Temp
°C
App
Temp
°C
Dew
Point
°C
Rel
Hum
%
Delta-T
°C
Wind Press
QNH
hPa
Press
MSL
hPa
Rain since
9am
mm
Dir  Spd
km/h
Gust
km/h
Spd
kts
Gust
kts
23/11:30pm 6.2 1.6 3.7 84 1.1 NNW 17 22 9 12 1011.2 1011.2 0.6
23/11:00pm 6.2 1.5 3.2 81 1.3 NNW 17 24 9 13 1011.3 1011.3 0.6
23/10:30pm 6.9 3.0 3.2 77 1.6 N 13 17 7 9 1011.5 1011.5 0.6
23/10:00pm 8.1 2.8 3.2 71 2.1 NW 20 30 11 16 1011.6 1011.6 0.6
23/09:30pm 9.4 4.5 4.0 69 2.4 W 19 30 10 16 1011.6 1011.6 0.6
23/09:00pm 9.7 4.0 4.7 71 2.2 W 24 35 13 19 1011.7 1011.7 0.6
23/08:30pm 9.1 3.7 4.7 74 2.0 WNW 22 37 12 20 1011.6 1011.6 0.6
23/08:00pm 9.3 4.4 4.9 74 2.0 W 20 32 11 17 1011.6 1011.6 0.6
23/07:30pm 8.3 1.2 3.6 72 2.0 W 30 52 16 28 1011.7 1011.7 0.6
23/07:26pm 8.8 2.2 4.2 73 2.0 WNW 28 52 15 28 1011.7 1011.7 0.4
23/07:00pm 9.9 3.3 4.1 67 2.6 W 28 43 15 23 1011.2 1011.2 0.4
23/06:30pm 9.1 2.9 4.3 72 2.1 WNW 26 48 14 26 1010.7 1010.7 0.4
23/06:00pm 9.7 4.9 4.9 72 2.2 NNW 19 39 10 21 1010.1 1010.1 0.4
23/05:30pm 9.3 4.6 5.1 75 1.9 NNE 19 33 10 18 1010.2 1010.2 0.4
23/05:00pm 9.6 4.9 5.2 74 2.0 NNE 19 35 10 19 1009.8 1009.8 0.4
23/04:30pm 9.2 3.9 4.8 74 2.0 NW 22 37 12 20 1009.9 1009.9 0.4
23/04:00pm 8.7 3.7 4.7 76 1.8 NNW 20 33 11 18 1009.7 1009.7 0.4
23/03:30pm 10.5 2.7 4.9 68 2.5 WNW 35 54 19 29 1009.1 1009.1 0.2
23/03:04pm 9.9 2.2 5.3 73 2.1 W 35 56 19 30 1009.1 1009.1 0.2
23/03:00pm 9.6 2.2 5.2 74 2.0 WNW 33 56 18 30 1009.0 1009.0 0.2
23/02:57pm 9.2 2.3 4.8 74 2.0 NW 30 56 16 30 1009.0 1009.0 0.2
23/02:55pm 9.3 3.3 5.1 75 1.9 NNW 26 56 14 30 1009.0 1009.0 0.2
23/02:47pm 9.8 3.1 5.4 74 2.0 W 30 46 16 25 1008.5 1008.5 0.2
23/02:30pm 9.0 -1.5 3.8 70 2.3 W 48 70 26 38 1008.7 1008.7 0.2
23/02:00pm 9.7 0.3 5.3 74 2.0 W 44 67 24 36 1008.4 1008.4 0.2
23/01:59pm 9.5 -0.4 4.9 73 2.1 W 46 67 25 36 1008.4 1008.4 0.2
23/01:56pm 9.6 0.0 4.6 71 2.2 W 44 67 24 36 1008.4 1008.4 0.2
23/01:50pm 10.2 3.3 4.6 68 2.5 NW 30 56 16 30 1008.3 1008.3 0.2
23/01:30pm 9.5 3.0 4.5 71 2.2 NNE 28 52 15 28 1007.9 1007.9 0.2
23/01:28pm 10.0 3.1 4.8 70 2.3 NNW 30 54 16 29 1007.7 1007.7 0.2
23/01:23pm 10.8 3.0 4.7 66 2.8 WNW 35 63 19 34 1007.8 1007.8 0.2
23/01:00pm 9.8 1.3 3.3 64 2.8 WNW 37 67 20 36 1008.1 1008.1 0.2
23/12:59pm 9.6 1.1 3.4 65 2.7 WNW 37 67 20 36 1008.0 1008.0 0.2
23/12:54pm 9.9 1.3 4.7 70 2.3 WNW 39 63 21 34 1007.4 1007.4 0.2
23/12:52pm 10.1 1.4 4.3 67 2.6 WNW 39 63 21 34 1007.8 1007.8 0.2
23/12:49pm 10.3 2.3 3.8 64 2.9 WNW 35 59 19 32 1007.9 1007.9 0.2
23/12:46pm 10.7 2.4 4.0 63 3.0 WNW 37 61 20 33 1007.6 1007.6 0.2
23/12:44pm 10.8 2.6 4.5 65 2.8 WNW 37 61 20 33 1007.6 1007.6 0.2
23/12:37pm 10.0 1.0 4.8 70 2.3 W 41 59 22 32 1008.0 1008.0 0.2
23/12:30pm 9.7 0.7 4.7 71 2.2 W 41 56 22 30 1008.2 1008.2 0.2
23/12:00pm 9.9 0.2 2.7 61 3.1 W 43 63 23 34 1008.0 1008.0 0.2
23/11:30am 9.5 -0.6 3.5 66 2.6 W 46 65 25 35 1008.1 1008.1 0.0
23/11:04am 8.9 -0.2 4.1 72 2.1 W 41 67 22 36 1008.0 1008.0 0.0
23/11:00am 8.2 -1.9 3.5 72 2.0 W 46 72 25 39 1008.0 1008.0 0.0
23/10:52am 8.3 -0.2 3.2 70 2.2 NW 37 72 20 39 1008.0 1008.0 0.0
23/10:45am 9.6 0.8 3.6 66 2.6 NW 39 63 21 34 1007.3 1007.3 0.0
23/10:42am 10.5 0.9 4.4 66 2.7 WNW 44 67 24 36 1007.2 1007.2 0.0
23/10:30am 10.1 -1.2 3.2 62 3.0 W 52 72 28 39 1007.4 1007.4 0.0
23/10:19am 10.3 1.9 1.7 55 3.6 WNW 35 61 19 33 1007.1 1007.1 0.0
23/10:14am 9.9 0.8 1.8 57 3.4 W 39 54 21 29 1006.7 1006.7 0.0
23/10:00am 9.3 0.6 3.9 69 2.4 W 39 56 21 30 1007.1 1007.1 0.0
23/09:56am 9.6 1.9 3.4 65 2.7 WNW 33 56 18 30 1007.0 1007.0 0.0
23/09:30am 9.4 2.0 2.0 60 3.1 NW 30 52 16 28 1006.3 1006.3 0.0
23/09:00am 8.9 2.0 2.7 65 2.6 NE 28 48 15 26 1005.6 1005.6 9.8
23/08:34am 9.4 0.5 0.6 54 3.6 NW 37 65 20 35 1005.2 1005.2 9.6
23/08:30am 9.4 -1.2 1.1 56 3.4 WNW 46 78 25 42 1005.0 1005.0 9.6
23/08:29am 9.5 -1.7 2.1 60 3.1 W 50 78 27 42 1005.0 1005.0 9.6
23/08:23am 9.6 -0.8 2.0 59 3.2 WNW 46 78 25 42 1005.3 1005.3 9.6
23/08:22am 9.4 -0.4 2.0 60 3.1 WNW 43 78 23 42 1005.4 1005.4 9.6
23/08:19am 9.3 1.0 2.2 61 3.0 NW 35 67 19 36 1005.3 1005.3 9.6
23/08:08am 9.3 0.9 1.5 58 3.2 NW 35 57 19 31 1004.7 1004.7 9.6
23/08:07am 9.2 0.8 1.4 58 3.2 NW 35 57 19 31 1004.7 1004.7 9.6
23/08:00am 9.2 -0.1 0.4 54 3.6 WNW 39 59 21 32 1004.8 1004.8 9.6
23/07:30am 9.0 0.4 2.6 64 2.7 WNW 37 61 20 33 1004.5 1004.5 9.6
23/07:24am 8.9 -1.8 2.5 64 2.7 W 48 80 26 43 1004.2 1004.2 9.6
23/07:16am 8.7 -0.2 2.9 67 2.5 NW 39 80 21 43 1004.4 1004.4 9.6
23/07:15am 8.8 0.7 3.2 68 2.4 NW 35 74 19 40 1004.4 1004.4 9.6
23/07:13am 9.2 2.0 3.0 65 2.7 NNW 30 67 16 36 1004.0 1004.1 9.6
23/07:08am 8.8 1.9 2.4 64 2.7 N 28 48 15 26 1003.7 1003.8 9.6
23/07:00am 8.3 1.2 1.5 62 2.8 NE 28 54 15 29 1003.7 1003.8 9.6
23/06:51am 8.8 1.0 1.9 62 2.9 NNW 32 59 17 32 1003.2 1003.3 9.6
23/06:35am 8.2 0.4 1.6 63 2.7 N 32 63 17 34 1003.2 1003.3 9.6
23/06:30am 8.5 1.5 2.1 64 2.7 NNE 28 56 15 30 1003.1 1003.2 9.6
23/06:00am 9.6 2.2 2.0 59 3.2 N 30 59 16 32 1002.3 1002.4 9.6
23/05:30am 9.5 1.4 -0.1 51 3.8 NNW 32 74 17 40 1001.7 1001.8 9.6
23/05:00am 9.7 1.9 1.8 58 3.3 NNW 32 57 17 31 1000.8 1000.9 9.6
23/04:58am 9.5 1.5 0.7 54 3.6 N 32 57 17 31 1001.1 1001.2 9.6
23/04:33am 9.6 1.7 1.0 55 3.5 NNW 32 52 17 28 1000.1 1000.2 9.6
23/04:30am 9.6 1.8 1.8 58 3.3 N 32 52 17 28 1000.0 1000.1 9.6
23/04:00am 9.4 1.7 3.2 65 2.7 NNE 33 56 18 30 999.0 999.1 9.6
23/03:31am 9.5 2.6 4.7 72 2.1 NNE 30 61 16 33 998.5 998.5 9.6
23/03:30am 9.7 3.3 5.1 73 2.1 N 28 46 15 25 998.8 998.8 9.6
23/03:00am 8.9 1.9 5.8 81 1.4 NE 32 65 17 35 997.6 997.6 9.6
23/02:39am 9.0 2.1 6.6 85 1.1 ENE 32 67 17 36 996.9 996.9 9.6
23/02:37am 9.0 2.1 6.6 85 1.1 NNE 32 67 17 36 997.3 997.3 9.6
23/02:32am 9.0 2.9 6.8 86 1.0 NNW 28 52 15 28 997.3 997.3 9.6
23/02:30am 8.8 2.3 6.4 85 1.1 NNW 30 56 16 30 997.7 997.7 9.6
23/02:22am 8.2 -1.2 5.3 82 1.3 W 44 74 24 40 997.6 997.6 9.4
23/02:16am 8.5 -1.3 5.4 81 1.4 W 46 69 25 37 997.9 997.9 9.2
23/02:13am 8.3 -1.0 5.1 80 1.4 W 43 69 23 37 997.9 997.9 9.2
23/02:10am 9.3 2.1 5.9 79 1.6 NW 33 69 18 37 997.8 997.8 9.2
23/02:06am 8.1 1.3 5.0 81 1.4 NNW 30 52 16 28 997.6 997.6 9.2
23/02:00am 8.1 0.3 4.9 80 1.4 NNW 35 59 19 32 997.0 997.0 9.0
23/01:54am 9.0 0.9 5.2 77 1.7 WNW 37 59 20 32 996.4 996.4 9.0
23/01:33am 8.9 2.7 6.2 83 1.2 NW 28 54 15 29 996.3 996.3 9.0
23/01:30am 8.7 2.8 6.0 83 1.2 N 26 43 14 23 996.3 996.3 9.0
23/01:16am 9.5 4.0 5.9 78 1.7 NNE 24 50 13 27 995.6 995.6 8.8
23/01:00am 9.7 4.0 5.1 73 2.1 NE 24 44 13 24 995.4 995.4 8.6
23/12:30am 9.6 3.7 6.0 78 1.7 NNW 26 50 14 27 994.9 994.9 8.6
23/12:18am 10.3 3.2 6.3 76 1.9 WNW 33 52 18 28 994.9 994.9 8.6
23/12:00am 9.9 2.4 6.3 78 1.7 W 35 50 19 27 994.6 994.6 8.6
 
Date/Time
EST
Temp
°C
App
Temp
°C
Dew
Point
°C
Rel
Hum
%
Delta-T
°C
Wind Press
QNH
hPa
Press
MSL
hPa
Rain since
9am
mm
Dir  Spd
km/h
Gust
km/h
Spd
kts
Gust
kts
22/11:44pm 9.3 3.6 6.9 85 1.1 WNW 26 44 14 24 994.4 994.4 8.6
22/11:30pm 8.2 3.7 6.3 88 0.9 N 19 32 10 17 994.1 994.1 8.6
22/11:00pm 7.9 3.3 6.4 90 0.7 NE 20 33 11 18 993.3 993.3 8.4
22/10:30pm 7.9 1.7 6.2 89 0.8 SSE 28 56 15 30 992.6 992.6 7.6
22/10:29pm 7.9 2.1 6.2 89 0.8 SSE 26 56 14 30 992.6 992.6 7.6
22/10:00pm 8.3 1.3 6.8 90 0.7 SE 33 69 18 37 990.6 990.6 7.2
22/09:59pm 8.5 1.7 7.0 90 0.7 ESE 32 69 17 37 990.3 990.3 7.2
22/09:57pm 8.8 2.5 7.4 91 0.7 ESE 30 69 16 37 990.2 990.2 7.2
22/09:53pm 9.0 2.2 7.5 90 0.7 NW 33 69 18 37 990.3 990.3 7.2
22/09:36pm 9.5 2.8 8.3 92 0.6 NW 33 56 18 30 990.4 990.4 7.2
22/09:30pm 9.5 3.4 8.3 92 0.6 NW 30 43 16 23 990.6 990.6 7.2
22/09:14pm 8.8 2.9 7.6 92 0.6 NNW 28 50 15 27 991.1 991.1 7.2
22/09:00pm 8.7 3.9 7.3 91 0.7 NNW 22 33 12 18 991.4 991.4 6.8
22/08:30pm 8.6 4.3 7.2 91 0.7 N 19 28 10 15 991.9 991.9 6.6
22/08:00pm 8.7 4.8 7.2 90 0.7 NNW 17 24 9 13 992.4 992.4 6.6
22/07:30pm 9.1 5.2 7.2 88 0.9 NNW 17 28 9 15 992.9 992.9 6.4
22/07:00pm 9.4 4.4 6.5 82 1.4 NNW 22 35 12 19 993.1 993.1 4.2
22/06:30pm 11.9 8.4 7.0 72 2.4 WNW 15 26 8 14 993.1 993.1 2.0
22/06:00pm 11.9 6.6 6.8 71 2.5 W 24 35 13 19 993.2 993.2 2.0
22/05:30pm 12.1 6.1 7.2 72 2.4 W 28 39 15 21 993.4 993.4 2.0
22/05:00pm 12.1 7.0 7.6 74 2.2 WNW 24 37 13 20 993.6 993.6 2.0
22/04:30pm 12.3 6.9 7.8 74 2.2 WNW 26 41 14 22 993.7 993.7 2.0
22/04:00pm 12.8 6.9 7.7 71 2.5 W 28 43 15 23 994.0 994.0 2.0
22/03:56pm 12.7 6.8 7.6 71 2.5 W 28 46 15 25 994.0 994.0 2.0
22/03:30pm 12.7 4.6 7.2 69 2.7 W 39 50 21 27 994.0 994.0 2.0
22/03:06pm 12.7 5.4 7.4 70 2.6 W 35 54 19 29 994.1 994.1 2.0
22/03:00pm 12.7 4.6 7.2 69 2.7 W 39 52 21 28 994.0 994.0 2.0
22/02:35pm 12.7 5.1 7.6 71 2.5 W 37 56 20 30 994.0 994.0 2.0
22/02:30pm 12.7 4.4 7.8 72 2.4 W 41 57 22 31 994.0 994.0 2.0

Other Formats:

Comma delimited format used in spreadsheet applications
http://www.bom.gov.au/fwo/IDV60801/IDV60801.94826.axf

JavaScript Object Notation format (JSON) in row-major order
http://www.bom.gov.au/fwo/IDV60801/IDV60801.94826.json